KISW/ISW METAR and TAF weather

Enter ICAO airport designator
Station Type Date Time Source
KISW METAR 2019/02/22 22:54 UTC NOAA

KISW 222254Z AUTO 06005KT 10SM CLR 00/M10 A3033 RMK AO2 SLP292 T00001100 TSNO


Station Type Date Time Source
KISW Decoded METAR 2019/02/22 22:54 UTC NOAA

WI RAPIDS ALEXANDER FIELD, WI, United States (KISW) 44-22N 89-50W 307M
Feb 22, 2019 - 05:54 PM EST / 2019.02.22 2254 UTC
Wind: from the ENE (060 degrees) at 6 MPH (5 KT):0
Visibility: 10 mile(s):0
Sky conditions: clear
Temperature: 32.0 F (0.0 C)
Windchill: 26 F (-3 C):1
Dew Point: 14.0 F (-10.0 C)
Relative Humidity: 46%
Pressure (altimeter): 30.33 in. Hg (1027 hPa)
ob: KISW 222254Z AUTO 06005KT 10SM CLR 00/M10 A3033 RMK AO2 SLP292 T00001100 TSNO
cycle: 23

Station Type Date Time Source
KISW TAF UTC NOAA

Error!


Example: see airport list